sensor_id;sensor_type;location;lat;lon;timestamp;pressure;altitude;pressure_sealevel;temperature;humidity
65013;BME280;51715;39.432;-77.518;2023-11-21T00:01:54;100870.84;;;9.30;26.68
65013;BME280;51715;39.432;-77.518;2023-11-21T00:04:23;100880.66;;;9.56;26.46
65013;BME280;51715;39.432;-77.518;2023-11-21T00:06:51;100887.06;;;9.26;26.06
65013;BME280;51715;39.432;-77.518;2023-11-21T00:09:19;100885.72;;;9.22;26.54
65013;BME280;51715;39.432;-77.518;2023-11-21T00:11:48;100883.64;;;9.58;26.71
65013;BME280;51715;39.432;-77.518;2023-11-21T00:14:17;100894.04;;;9.71;26.52
65013;BME280;51715;39.432;-77.518;2023-11-21T00:16:45;100898.79;;;9.29;27.68
65013;BME280;51715;39.432;-77.518;2023-11-21T00:19:14;100902.37;;;8.71;26.80
65013;BME280;51715;39.432;-77.518;2023-11-21T00:21:43;100916.11;;;8.78;27.48
65013;BME280;51715;39.432;-77.518;2023-11-21T00:24:11;100923.34;;;8.61;28.33
65013;BME280;51715;39.432;-77.518;2023-11-21T00:26:40;100922.01;;;8.47;27.61
65013;BME280;51715;39.432;-77.518;2023-11-21T00:29:08;100916.04;;;8.53;27.24
65013;BME280;51715;39.432;-77.518;2023-11-21T00:31:36;100914.38;;;9.05;27.15
65013;BME280;51715;39.432;-77.518;2023-11-21T00:34:04;100917.40;;;8.79;26.66
65013;BME280;51715;39.432;-77.518;2023-11-21T00:36:34;100922.97;;;8.72;26.90
65013;BME280;51715;39.432;-77.518;2023-11-21T00:39:01;100929.73;;;9.18;25.72
65013;BME280;51715;39.432;-77.518;2023-11-21T00:41:30;100927.78;;;9.63;25.92
65013;BME280;51715;39.432;-77.518;2023-11-21T00:43:58;100919.46;;;8.90;26.37
65013;BME280;51715;39.432;-77.518;2023-11-21T00:46:27;100917.32;;;8.60;27.01
65013;BME280;51715;39.432;-77.518;2023-11-21T00:48:55;100925.37;;;9.37;25.99
65013;BME280;51715;39.432;-77.518;2023-11-21T00:51:23;100930.52;;;9.04;25.51
65013;BME280;51715;39.432;-77.518;2023-11-21T00:53:52;100935.38;;;8.84;25.13
65013;BME280;51715;39.432;-77.518;2023-11-21T00:56:21;100941.69;;;9.35;24.80
65013;BME280;51715;39.432;-77.518;2023-11-21T00:58:50;100948.79;;;9.09;25.07
65013;BME280;51715;39.432;-77.518;2023-11-21T01:01:19;100945.86;;;8.41;26.43
65013;BME280;51715;39.432;-77.518;2023-11-21T01:03:47;100940.61;;;8.78;26.01
65013;BME280;51715;39.432;-77.518;2023-11-21T01:06:15;100940.09;;;8.11;26.25
65013;BME280;51715;39.432;-77.518;2023-11-21T01:08:43;100935.07;;;8.48;25.72
65013;BME280;51715;39.432;-77.518;2023-11-21T01:11:11;100930.78;;;8.33;26.43
65013;BME280;51715;39.432;-77.518;2023-11-21T01:13:40;100925.66;;;8.15;25.74
65013;BME280;51715;39.432;-77.518;2023-11-21T01:16:09;100920.55;;;8.54;26.61
65013;BME280;51715;39.432;-77.518;2023-11-21T01:18:38;100924.56;;;7.75;25.69
65013;BME280;51715;39.432;-77.518;2023-11-21T01:21:06;100924.10;;;7.87;26.94
65013;BME280;51715;39.432;-77.518;2023-11-21T01:23:34;100922.28;;;8.56;25.74
65013;BME280;51715;39.432;-77.518;2023-11-21T01:26:02;100926.43;;;8.69;25.97
65013;BME280;51715;39.432;-77.518;2023-11-21T01:28:30;100924.93;;;7.82;27.03
65013;BME280;51715;39.432;-77.518;2023-11-21T01:30:59;100935.25;;;7.56;26.73
65013;BME280;51715;39.432;-77.518;2023-11-21T01:33:27;100935.69;;;7.17;26.80
65013;BME280;51715;39.432;-77.518;2023-11-21T01:35:55;100943.66;;;7.47;26.88
65013;BME280;51715;39.432;-77.518;2023-11-21T01:38:23;100953.32;;;5.66;27.34
65013;BME280;51715;39.432;-77.518;2023-11-21T01:40:52;100938.12;;;6.64;27.73
65013;BME280;51715;39.432;-77.518;2023-11-21T01:43:22;100930.37;;;6.48;27.40
65013;BME280;51715;39.432;-77.518;2023-11-21T01:45:50;100921.79;;;7.10;26.94
65013;BME280;51715;39.432;-77.518;2023-11-21T01:48:18;100902.71;;;7.88;27.34
65013;BME280;51715;39.432;-77.518;2023-11-21T01:50:46;100907.32;;;7.81;26.63
65013;BME280;51715;39.432;-77.518;2023-11-21T01:53:14;100918.98;;;7.85;26.11
65013;BME280;51715;39.432;-77.518;2023-11-21T01:55:42;100919.83;;;7.58;26.10
65013;BME280;51715;39.432;-77.518;2023-11-21T01:58:11;100920.05;;;7.59;26.24
65013;BME280;51715;39.432;-77.518;2023-11-21T02:00:40;100905.84;;;7.58;26.86
65013;BME280;51715;39.432;-77.518;2023-11-21T02:03:08;100905.35;;;6.74;26.69
65013;BME280;51715;39.432;-77.518;2023-11-21T02:05:37;100910.82;;;5.80;27.27
65013;BME280;51715;39.432;-77.518;2023-11-21T02:08:05;100909.30;;;6.53;27.36
65013;BME280;51715;39.432;-77.518;2023-11-21T02:10:33;100903.05;;;7.50;27.34
65013;BME280;51715;39.432;-77.518;2023-11-21T02:13:01;100892.05;;;6.65;27.67
65013;BME280;51715;39.432;-77.518;2023-11-21T02:15:29;100894.25;;;6.73;27.08
65013;BME280;51715;39.432;-77.518;2023-11-21T02:17:58;100893.05;;;6.90;27.29
65013;BME280;51715;39.432;-77.518;2023-11-21T02:20:27;100898.96;;;6.68;27.18
65013;BME280;51715;39.432;-77.518;2023-11-21T02:22:57;100903.83;;;7.05;27.23
65013;BME280;51715;39.432;-77.518;2023-11-21T02:25:26;100903.22;;;7.62;26.39
65013;BME280;51715;39.432;-77.518;2023-11-21T02:27:55;100914.42;;;6.90;27.56
65013;BME280;51715;39.432;-77.518;2023-11-21T02:30:23;100914.95;;;7.29;26.02
65013;BME280;51715;39.432;-77.518;2023-11-21T02:32:53;100922.30;;;7.12;26.86
65013;BME280;51715;39.432;-77.518;2023-11-21T02:35:22;100916.46;;;7.88;26.23
65013;BME280;51715;39.432;-77.518;2023-11-21T02:37:50;100901.36;;;8.00;26.27
65013;BME280;51715;39.432;-77.518;2023-11-21T02:40:19;100899.74;;;7.89;26.16
65013;BME280;51715;39.432;-77.518;2023-11-21T02:42:48;100903.15;;;7.65;26.38
65013;BME280;51715;39.432;-77.518;2023-11-21T02:45:17;100907.02;;;7.81;26.16
65013;BME280;51715;39.432;-77.518;2023-11-21T02:47:45;100917.42;;;8.20;25.37
65013;BME280;51715;39.432;-77.518;2023-11-21T02:50:14;100923.14;;;7.03;26.55
65013;BME280;51715;39.432;-77.518;2023-11-21T02:52:41;100924.47;;;7.46;26.09
65013;BME280;51715;39.432;-77.518;2023-11-21T02:55:11;100938.66;;;7.39;26.14
65013;BME280;51715;39.432;-77.518;2023-11-21T02:57:39;100935.45;;;7.74;25.73
65013;BME280;51715;39.432;-77.518;2023-11-21T03:00:10;100929.42;;;8.19;25.90
65013;BME280;51715;39.432;-77.518;2023-11-21T03:02:38;100926.39;;;7.94;25.38
65013;BME280;51715;39.432;-77.518;2023-11-21T03:05:07;100926.49;;;8.04;25.58
65013;BME280;51715;39.432;-77.518;2023-11-21T03:07:38;100926.28;;;8.09;25.47
65013;BME280;51715;39.432;-77.518;2023-11-21T03:10:09;100924.27;;;8.15;25.90
65013;BME280;51715;39.432;-77.518;2023-11-21T03:12:37;100928.49;;;7.66;26.11
65013;BME280;51715;39.432;-77.518;2023-11-21T03:15:06;100935.03;;;6.96;26.52
65013;BME280;51715;39.432;-77.518;2023-11-21T03:17:34;100932.47;;;7.14;26.54
65013;BME280;51715;39.432;-77.518;2023-11-21T03:20:03;100927.21;;;6.91;26.46
65013;BME280;51715;39.432;-77.518;2023-11-21T03:22:32;100927.04;;;7.32;27.03
65013;BME280;51715;39.432;-77.518;2023-11-21T03:25:01;100921.52;;;7.83;26.11
65013;BME280;51715;39.432;-77.518;2023-11-21T03:27:29;100919.68;;;7.29;27.05
65013;BME280;51715;39.432;-77.518;2023-11-21T03:29:57;100923.18;;;7.42;27.14
65013;BME280;51715;39.432;-77.518;2023-11-21T03:32:26;100931.48;;;7.53;26.53
65013;BME280;51715;39.432;-77.518;2023-11-21T03:34:55;100940.63;;;7.63;26.35
65013;BME280;51715;39.432;-77.518;2023-11-21T03:37:23;100949.03;;;7.63;25.88
65013;BME280;51715;39.432;-77.518;2023-11-21T03:39:52;100946.33;;;7.46;25.51
65013;BME280;51715;39.432;-77.518;2023-11-21T03:42:20;100959.00;;;7.86;26.38
65013;BME280;51715;39.432;-77.518;2023-11-21T03:44:48;100962.88;;;7.53;26.86
65013;BME280;51715;39.432;-77.518;2023-11-21T03:47:17;100962.11;;;7.65;25.91
65013;BME280;51715;39.432;-77.518;2023-11-21T03:49:45;100969.20;;;7.70;26.54
65013;BME280;51715;39.432;-77.518;2023-11-21T03:52:13;100969.52;;;8.15;25.94
65013;BME280;51715;39.432;-77.518;2023-11-21T03:54:41;100973.10;;;7.83;26.32
65013;BME280;51715;39.432;-77.518;2023-11-21T03:57:10;100975.85;;;8.19;25.55
65013;BME280;51715;39.432;-77.518;2023-11-21T03:59:41;100982.54;;;7.63;26.25
65013;BME280;51715;39.432;-77.518;2023-11-21T04:02:09;100988.23;;;7.26;26.38
65013;BME280;51715;39.432;-77.518;2023-11-21T04:04:38;100989.54;;;6.80;27.16
65013;BME280;51715;39.432;-77.518;2023-11-21T04:07:06;100985.06;;;7.31;26.76
65013;BME280;51715;39.432;-77.518;2023-11-21T04:09:34;100982.48;;;7.45;26.81
65013;BME280;51715;39.432;-77.518;2023-11-21T04:12:04;100977.83;;;7.48;26.47
65013;BME280;51715;39.432;-77.518;2023-11-21T04:14:32;100978.38;;;8.31;25.94
65013;BME280;51715;39.432;-77.518;2023-11-21T04:17:00;100978.28;;;8.05;25.78
65013;BME280;51715;39.432;-77.518;2023-11-21T04:19:28;100988.51;;;7.88;26.10
65013;BME280;51715;39.432;-77.518;2023-11-21T04:21:57;100995.22;;;7.17;27.17
65013;BME280;51715;39.432;-77.518;2023-11-21T04:24:26;100991.82;;;7.41;26.65
65013;BME280;51715;39.432;-77.518;2023-11-21T04:26:54;100990.85;;;7.82;26.73
65013;BME280;51715;39.432;-77.518;2023-11-21T04:29:22;100989.24;;;6.94;27.04
65013;BME280;51715;39.432;-77.518;2023-11-21T04:31:50;100983.48;;;7.10;27.22
65013;BME280;51715;39.432;-77.518;2023-11-21T04:34:18;100977.89;;;7.09;27.28
65013;BME280;51715;39.432;-77.518;2023-11-21T04:36:46;100978.81;;;7.78;26.29
65013;BME280;51715;39.432;-77.518;2023-11-21T04:39:15;100985.83;;;8.38;25.85
65013;BME280;51715;39.432;-77.518;2023-11-21T04:41:43;100986.60;;;8.18;25.75
65013;BME280;51715;39.432;-77.518;2023-11-21T04:44:11;100984.01;;;7.87;25.91
65013;BME280;51715;39.432;-77.518;2023-11-21T04:46:39;100981.36;;;7.28;26.85
65013;BME280;51715;39.432;-77.518;2023-11-21T04:49:08;100981.84;;;6.25;27.89
65013;BME280;51715;39.432;-77.518;2023-11-21T04:51:36;100976.54;;;6.72;27.75
65013;BME280;51715;39.432;-77.518;2023-11-21T04:54:04;100961.41;;;7.05;27.22
65013;BME280;51715;39.432;-77.518;2023-11-21T04:56:33;100969.48;;;6.41;27.92
65013;BME280;51715;39.432;-77.518;2023-11-21T04:59:01;100968.11;;;6.86;27.97
65013;BME280;51715;39.432;-77.518;2023-11-21T05:04:00;100970.82;;;7.29;26.17
65013;BME280;51715;39.432;-77.518;2023-11-21T05:06:29;100969.34;;;7.78;26.09
65013;BME280;51715;39.432;-77.518;2023-11-21T05:08:57;100977.26;;;7.82;25.79
65013;BME280;51715;39.432;-77.518;2023-11-21T05:11:27;100977.36;;;8.26;25.18
65013;BME280;51715;39.432;-77.518;2023-11-21T05:13:55;100982.62;;;7.78;26.03
65013;BME280;51715;39.432;-77.518;2023-11-21T05:16:25;100978.41;;;7.84;26.23
65013;BME280;51715;39.432;-77.518;2023-11-21T05:18:53;100983.44;;;7.62;26.82
65013;BME280;51715;39.432;-77.518;2023-11-21T05:21:22;100988.64;;;7.98;26.80
65013;BME280;51715;39.432;-77.518;2023-11-21T05:23:50;100990.99;;;8.09;26.22
65013;BME280;51715;39.432;-77.518;2023-11-21T05:26:18;100987.92;;;7.31;27.14
65013;BME280;51715;39.432;-77.518;2023-11-21T05:28:46;100984.05;;;7.90;26.86
65013;BME280;51715;39.432;-77.518;2023-11-21T05:31:14;100989.21;;;7.57;27.03
65013;BME280;51715;39.432;-77.518;2023-11-21T05:33:42;100988.59;;;7.55;26.75
65013;BME280;51715;39.432;-77.518;2023-11-21T05:36:10;100987.01;;;7.20;27.13
65013;BME280;51715;39.432;-77.518;2023-11-21T05:38:39;100988.19;;;7.23;26.88
65013;BME280;51715;39.432;-77.518;2023-11-21T05:41:07;100991.75;;;7.84;27.44
65013;BME280;51715;39.432;-77.518;2023-11-21T05:43:35;100988.68;;;7.74;26.58
65013;BME280;51715;39.432;-77.518;2023-11-21T05:46:03;100980.81;;;7.78;26.51
65013;BME280;51715;39.432;-77.518;2023-11-21T05:48:32;100978.38;;;8.18;26.54
65013;BME280;51715;39.432;-77.518;2023-11-21T05:51:00;100985.66;;;7.73;27.02
65013;BME280;51715;39.432;-77.518;2023-11-21T05:53:28;100988.71;;;7.78;26.96
65013;BME280;51715;39.432;-77.518;2023-11-21T05:55:56;100985.11;;;8.09;26.47
65013;BME280;51715;39.432;-77.518;2023-11-21T05:58:25;100984.00;;;8.20;26.34
65013;BME280;51715;39.432;-77.518;2023-11-21T06:00:53;100982.50;;;7.86;27.50
65013;BME280;51715;39.432;-77.518;2023-11-21T06:03:21;100980.12;;;7.88;27.11
65013;BME280;51715;39.432;-77.518;2023-11-21T06:05:49;100978.39;;;8.06;26.80
65013;BME280;51715;39.432;-77.518;2023-11-21T06:08:17;100982.72;;;8.05;26.79
65013;BME280;51715;39.432;-77.518;2023-11-21T06:10:46;100981.52;;;8.60;26.55
65013;BME280;51715;39.432;-77.518;2023-11-21T06:13:14;100983.27;;;8.22;26.41
65013;BME280;51715;39.432;-77.518;2023-11-21T06:15:42;100976.16;;;8.36;26.22
65013;BME280;51715;39.432;-77.518;2023-11-21T06:18:10;100972.51;;;8.35;26.33
65013;BME280;51715;39.432;-77.518;2023-11-21T06:20:38;100982.90;;;7.92;26.92
65013;BME280;51715;39.432;-77.518;2023-11-21T06:23:07;100989.90;;;7.97;26.74
65013;BME280;51715;39.432;-77.518;2023-11-21T06:25:35;100991.62;;;8.43;26.95
65013;BME280;51715;39.432;-77.518;2023-11-21T06:28:03;100993.83;;;8.29;26.77
65013;BME280;51715;39.432;-77.518;2023-11-21T06:30:31;100994.12;;;8.43;26.51
65013;BME280;51715;39.432;-77.518;2023-11-21T06:33:00;100989.63;;;7.69;27.09
65013;BME280;51715;39.432;-77.518;2023-11-21T06:35:29;100987.17;;;7.84;27.45
65013;BME280;51715;39.432;-77.518;2023-11-21T06:37:57;100988.98;;;7.41;27.56
65013;BME280;51715;39.432;-77.518;2023-11-21T06:40:25;100992.95;;;6.80;28.05
65013;BME280;51715;39.432;-77.518;2023-11-21T06:42:54;100987.06;;;6.01;30.00
65013;BME280;51715;39.432;-77.518;2023-11-21T06:45:22;100982.20;;;4.78;31.43
65013;BME280;51715;39.432;-77.518;2023-11-21T06:47:50;100982.46;;;5.10;31.93
65013;BME280;51715;39.432;-77.518;2023-11-21T06:50:19;100976.05;;;6.21;30.74
65013;BME280;51715;39.432;-77.518;2023-11-21T06:52:47;100966.47;;;5.10;31.52
65013;BME280;51715;39.432;-77.518;2023-11-21T06:55:15;100960.84;;;5.33;31.57
65013;BME280;51715;39.432;-77.518;2023-11-21T06:57:43;100951.16;;;6.20;30.07
65013;BME280;51715;39.432;-77.518;2023-11-21T07:00:12;100941.42;;;7.05;29.33
65013;BME280;51715;39.432;-77.518;2023-11-21T07:02:41;100942.34;;;6.46;29.11
65013;BME280;51715;39.432;-77.518;2023-11-21T07:05:08;100944.95;;;5.83;29.91
65013;BME280;51715;39.432;-77.518;2023-11-21T07:07:36;100945.83;;;5.64;29.99
65013;BME280;51715;39.432;-77.518;2023-11-21T07:10:05;100953.43;;;5.87;30.63
65013;BME280;51715;39.432;-77.518;2023-11-21T07:12:33;100955.28;;;5.80;30.38
65013;BME280;51715;39.432;-77.518;2023-11-21T07:15:01;100946.15;;;6.77;28.92
65013;BME280;51715;39.432;-77.518;2023-11-21T07:17:29;100949.70;;;6.92;29.39
65013;BME280;51715;39.432;-77.518;2023-11-21T07:19:57;100937.99;;;7.80;28.71
65013;BME280;51715;39.432;-77.518;2023-11-21T07:22:25;100947.30;;;7.43;28.86
65013;BME280;51715;39.432;-77.518;2023-11-21T07:24:54;100946.92;;;6.93;29.89
65013;BME280;51715;39.432;-77.518;2023-11-21T07:27:23;100943.41;;;7.81;29.79
65013;BME280;51715;39.432;-77.518;2023-11-21T07:29:51;100932.49;;;8.20;29.25
65013;BME280;51715;39.432;-77.518;2023-11-21T07:32:19;100927.18;;;7.62;29.59
65013;BME280;51715;39.432;-77.518;2023-11-21T07:34:47;100925.53;;;7.11;31.22
65013;BME280;51715;39.432;-77.518;2023-11-21T07:37:15;100917.34;;;7.08;31.67
65013;BME280;51715;39.432;-77.518;2023-11-21T07:39:43;100918.54;;;6.15;33.15
65013;BME280;51715;39.432;-77.518;2023-11-21T07:42:11;100909.53;;;7.10;31.54
65013;BME280;51715;39.432;-77.518;2023-11-21T07:44:41;100913.90;;;7.18;31.13
65013;BME280;51715;39.432;-77.518;2023-11-21T07:47:10;100927.88;;;6.82;31.75
65013;BME280;51715;39.432;-77.518;2023-11-21T07:49:37;100943.50;;;6.94;32.20
65013;BME280;51715;39.432;-77.518;2023-11-21T07:52:06;100941.16;;;7.26;31.09
65013;BME280;51715;39.432;-77.518;2023-11-21T07:54:34;100923.92;;;7.31;31.11
65013;BME280;51715;39.432;-77.518;2023-11-21T07:57:02;100928.76;;;6.38;33.16
65013;BME280;51715;39.432;-77.518;2023-11-21T07:59:30;100928.27;;;7.10;32.43
65013;BME280;51715;39.432;-77.518;2023-11-21T08:01:58;100920.01;;;7.09;32.28
65013;BME280;51715;39.432;-77.518;2023-11-21T08:04:26;100900.29;;;7.42;31.76
65013;BME280;51715;39.432;-77.518;2023-11-21T08:06:54;100901.60;;;7.18;32.33
65013;BME280;51715;39.432;-77.518;2023-11-21T08:09:22;100915.36;;;7.06;32.94
65013;BME280;51715;39.432;-77.518;2023-11-21T08:11:50;100898.15;;;6.51;33.61
65013;BME280;51715;39.432;-77.518;2023-11-21T08:14:19;100878.10;;;6.58;33.71
65013;BME280;51715;39.432;-77.518;2023-11-21T08:16:46;100894.18;;;6.44;34.26
65013;BME280;51715;39.432;-77.518;2023-11-21T08:19:14;100886.13;;;6.63;33.33
65013;BME280;51715;39.432;-77.518;2023-11-21T08:21:43;100890.51;;;7.08;32.76
65013;BME280;51715;39.432;-77.518;2023-11-21T08:24:11;100882.81;;;6.74;33.65
65013;BME280;51715;39.432;-77.518;2023-11-21T08:26:39;100881.92;;;6.53;34.01
65013;BME280;51715;39.432;-77.518;2023-11-21T08:29:08;100858.77;;;5.91;34.28
65013;BME280;51715;39.432;-77.518;2023-11-21T08:31:36;100820.69;;;6.13;34.61
65013;BME280;51715;39.432;-77.518;2023-11-21T08:34:04;100827.22;;;4.44;36.91
65013;BME280;51715;39.432;-77.518;2023-11-21T08:36:33;100822.16;;;5.70;35.38
65013;BME280;51715;39.432;-77.518;2023-11-21T08:39:00;100824.44;;;6.06;34.86
65013;BME280;51715;39.432;-77.518;2023-11-21T08:41:29;100833.32;;;6.53;33.42
65013;BME280;51715;39.432;-77.518;2023-11-21T08:43:57;100819.96;;;6.83;33.27
65013;BME280;51715;39.432;-77.518;2023-11-21T08:46:26;100835.82;;;6.55;33.53
65013;BME280;51715;39.432;-77.518;2023-11-21T08:48:54;100837.65;;;5.99;34.09
65013;BME280;51715;39.432;-77.518;2023-11-21T08:51:22;100821.06;;;5.95;34.01
65013;BME280;51715;39.432;-77.518;2023-11-21T08:53:51;100843.64;;;5.95;34.36
65013;BME280;51715;39.432;-77.518;2023-11-21T08:56:19;100837.58;;;6.30;33.74
65013;BME280;51715;39.432;-77.518;2023-11-21T08:58:47;100838.82;;;5.47;35.07
65013;BME280;51715;39.432;-77.518;2023-11-21T09:01:16;100843.50;;;5.80;33.23
65013;BME280;51715;39.432;-77.518;2023-11-21T09:03:43;100856.32;;;5.84;33.67
65013;BME280;51715;39.432;-77.518;2023-11-21T09:06:12;100831.81;;;5.76;33.39
65013;BME280;51715;39.432;-77.518;2023-11-21T09:08:41;100829.11;;;5.44;34.39
65013;BME280;51715;39.432;-77.518;2023-11-21T09:11:09;100843.05;;;6.17;32.70
65013;BME280;51715;39.432;-77.518;2023-11-21T09:13:37;100839.39;;;6.94;31.53
65013;BME280;51715;39.432;-77.518;2023-11-21T09:16:06;100824.39;;;5.06;35.10
65013;BME280;51715;39.432;-77.518;2023-11-21T09:18:34;100823.97;;;4.91;34.89
65013;BME280;51715;39.432;-77.518;2023-11-21T09:21:02;100832.24;;;5.03;35.95
65013;BME280;51715;39.432;-77.518;2023-11-21T09:23:30;100817.79;;;4.86;35.00
65013;BME280;51715;39.432;-77.518;2023-11-21T09:25:58;100815.57;;;4.09;36.35
65013;BME280;51715;39.432;-77.518;2023-11-21T09:28:27;100809.08;;;5.27;34.32
65013;BME280;51715;39.432;-77.518;2023-11-21T09:30:55;100801.99;;;4.16;36.01
65013;BME280;51715;39.432;-77.518;2023-11-21T09:33:23;100788.90;;;3.75;37.82
65013;BME280;51715;39.432;-77.518;2023-11-21T09:35:52;100791.81;;;3.75;37.04
65013;BME280;51715;39.432;-77.518;2023-11-21T09:38:19;100789.22;;;3.38;37.68
65013;BME280;51715;39.432;-77.518;2023-11-21T09:40:48;100795.88;;;3.25;38.78
65013;BME280;51715;39.432;-77.518;2023-11-21T09:43:18;100789.49;;;3.90;36.57
65013;BME280;51715;39.432;-77.518;2023-11-21T09:45:48;100784.44;;;3.90;37.24
65013;BME280;51715;39.432;-77.518;2023-11-21T09:48:20;100794.77;;;4.98;36.45
65013;BME280;51715;39.432;-77.518;2023-11-21T09:50:51;100797.35;;;4.88;34.80
65013;BME280;51715;39.432;-77.518;2023-11-21T09:53:21;100797.66;;;5.78;33.81
65013;BME280;51715;39.432;-77.518;2023-11-21T09:55:51;100804.84;;;5.63;33.57
65013;BME280;51715;39.432;-77.518;2023-11-21T09:58:20;100798.46;;;6.05;33.71
65013;BME280;51715;39.432;-77.518;2023-11-21T10:00:51;100801.05;;;6.79;32.89
65013;BME280;51715;39.432;-77.518;2023-11-21T10:03:21;100808.62;;;5.17;34.23
65013;BME280;51715;39.432;-77.518;2023-11-21T10:05:51;100797.26;;;5.09;35.05
65013;BME280;51715;39.432;-77.518;2023-11-21T10:08:22;100812.21;;;5.33;33.96
65013;BME280;51715;39.432;-77.518;2023-11-21T10:10:54;100838.73;;;5.00;34.25
65013;BME280;51715;39.432;-77.518;2023-11-21T10:13:22;100836.02;;;5.59;34.33
65013;BME280;51715;39.432;-77.518;2023-11-21T10:15:52;100813.72;;;6.26;33.43
65013;BME280;51715;39.432;-77.518;2023-11-21T10:18:20;100812.39;;;5.82;33.63
65013;BME280;51715;39.432;-77.518;2023-11-21T10:20:50;100792.85;;;5.55;33.99
65013;BME280;51715;39.432;-77.518;2023-11-21T10:23:19;100776.04;;;6.05;35.49
65013;BME280;51715;39.432;-77.518;2023-11-21T10:25:47;100779.63;;;6.28;35.30
65013;BME280;51715;39.432;-77.518;2023-11-21T10:28:15;100776.12;;;5.69;34.15
65013;BME280;51715;39.432;-77.518;2023-11-21T10:30:43;100772.44;;;5.38;35.01
65013;BME280;51715;39.432;-77.518;2023-11-21T10:33:13;100771.15;;;5.44;34.29
65013;BME280;51715;39.432;-77.518;2023-11-21T10:35:44;100777.67;;;5.49;34.90
65013;BME280;51715;39.432;-77.518;2023-11-21T10:38:13;100778.98;;;6.54;33.25
65013;BME280;51715;39.432;-77.518;2023-11-21T10:40:41;100779.77;;;6.85;32.54
65013;BME280;51715;39.432;-77.518;2023-11-21T10:43:10;100785.67;;;5.98;33.00
65013;BME280;51715;39.432;-77.518;2023-11-21T10:45:38;100787.25;;;6.39;33.63
65013;BME280;51715;39.432;-77.518;2023-11-21T10:48:07;100788.20;;;6.34;32.70
65013;BME280;51715;39.432;-77.518;2023-11-21T10:50:36;100787.14;;;6.50;32.37
65013;BME280;51715;39.432;-77.518;2023-11-21T10:53:05;100783.83;;;6.46;32.34
65013;BME280;51715;39.432;-77.518;2023-11-21T10:55:34;100783.87;;;7.13;31.75
65013;BME280;51715;39.432;-77.518;2023-11-21T10:58:05;100774.76;;;7.66;31.92
65013;BME280;51715;39.432;-77.518;2023-11-21T11:00:33;100775.81;;;5.87;32.91
65013;BME280;51715;39.432;-77.518;2023-11-21T11:03:03;100775.55;;;6.56;33.37
65013;BME280;51715;39.432;-77.518;2023-11-21T11:05:31;100766.11;;;6.94;31.80
65013;BME280;51715;39.432;-77.518;2023-11-21T11:08:04;100768.27;;;6.66;32.97
65013;BME280;51715;39.432;-77.518;2023-11-21T11:10:32;100766.32;;;6.65;31.95
65013;BME280;51715;39.432;-77.518;2023-11-21T11:13:00;100745.93;;;7.12;31.79
65013;BME280;51715;39.432;-77.518;2023-11-21T11:15:29;100738.70;;;7.78;31.23
65013;BME280;51715;39.432;-77.518;2023-11-21T11:17:57;100713.28;;;7.25;31.59
65013;BME280;51715;39.432;-77.518;2023-11-21T11:20:29;100715.60;;;5.90;33.50
65013;BME280;51715;39.432;-77.518;2023-11-21T11:23:12;100718.86;;;7.29;33.20
65013;BME280;51715;39.432;-77.518;2023-11-21T11:25:52;100711.30;;;7.57;31.50
65013;BME280;51715;39.432;-77.518;2023-11-21T11:28:41;100706.72;;;7.39;31.24
65013;BME280;51715;39.432;-77.518;2023-11-21T11:31:27;100710.29;;;7.78;30.95
65013;BME280;51715;39.432;-77.518;2023-11-21T11:34:05;100721.12;;;7.53;30.73
65013;BME280;51715;39.432;-77.518;2023-11-21T11:36:40;100725.68;;;7.83;31.14
65013;BME280;51715;39.432;-77.518;2023-11-21T11:39:28;100733.60;;;7.37;30.80
65013;BME280;51715;39.432;-77.518;2023-11-21T11:41:56;100727.95;;;7.63;30.79
65013;BME280;51715;39.432;-77.518;2023-11-21T11:44:57;100728.21;;;8.11;30.42
65013;BME280;51715;39.432;-77.518;2023-11-21T11:47:28;100731.80;;;6.94;31.43
65013;BME280;51715;39.432;-77.518;2023-11-21T11:49:58;100729.41;;;6.95;32.53
65013;BME280;51715;39.432;-77.518;2023-11-21T11:52:44;100736.28;;;7.26;31.67
65013;BME280;51715;39.432;-77.518;2023-11-21T11:55:15;100752.27;;;7.19;32.13
65013;BME280;51715;39.432;-77.518;2023-11-21T11:57:44;100736.70;;;7.22;31.23
65013;BME280;51715;39.432;-77.518;2023-11-21T12:00:16;100724.69;;;6.64;33.50
65013;BME280;51715;39.432;-77.518;2023-11-21T12:02:46;100715.03;;;6.93;33.57
65013;BME280;51715;39.432;-77.518;2023-11-21T12:05:16;100704.90;;;6.19;33.59
65013;BME280;51715;39.432;-77.518;2023-11-21T12:07:47;100697.18;;;6.66;33.70
65013;BME280;51715;39.432;-77.518;2023-11-21T12:10:17;100688.25;;;6.21;34.08
65013;BME280;51715;39.432;-77.518;2023-11-21T12:12:47;100689.15;;;7.03;33.71
65013;BME280;51715;39.432;-77.518;2023-11-21T12:15:15;100683.78;;;7.17;32.87
65013;BME280;51715;39.432;-77.518;2023-11-21T12:17:44;100676.34;;;7.48;32.89
65013;BME280;51715;39.432;-77.518;2023-11-21T12:20:13;100672.12;;;6.82;33.59
65013;BME280;51715;39.432;-77.518;2023-11-21T12:22:43;100664.73;;;7.33;32.51
65013;BME280;51715;39.432;-77.518;2023-11-21T12:25:12;100645.81;;;6.44;34.59
65013;BME280;51715;39.432;-77.518;2023-11-21T12:27:40;100632.58;;;6.90;33.58
65013;BME280;51715;39.432;-77.518;2023-11-21T12:30:10;100624.72;;;7.13;33.21
65013;BME280;51715;39.432;-77.518;2023-11-21T12:32:38;100623.82;;;7.48;32.77
65013;BME280;51715;39.432;-77.518;2023-11-21T12:35:07;100615.71;;;6.16;34.43
65013;BME280;51715;39.432;-77.518;2023-11-21T12:37:37;100611.44;;;6.48;35.40
65013;BME280;51715;39.432;-77.518;2023-11-21T12:40:09;100618.86;;;5.71;36.77
65013;BME280;51715;39.432;-77.518;2023-11-21T12:42:38;100627.59;;;4.86;37.04
65013;BME280;51715;39.432;-77.518;2023-11-21T12:45:11;100632.40;;;5.24;37.60
65013;BME280;51715;39.432;-77.518;2023-11-21T12:47:46;100643.49;;;4.04;39.00
65013;BME280;51715;39.432;-77.518;2023-11-21T12:50:15;100644.94;;;4.37;38.50
65013;BME280;51715;39.432;-77.518;2023-11-21T12:52:44;100638.28;;;4.79;38.59